createdAt,value
2023-05-06T07:03:34.173Z,83.82
2023-05-06T07:06:37.025Z,82.99
2023-05-06T07:09:42.122Z,80.94
2023-05-06T07:12:44.904Z,81.58
2023-05-06T07:15:47.392Z,78.38
2023-05-06T07:18:53.749Z,77.83
2023-05-06T07:21:56.922Z,75.89
2023-05-06T07:24:59.639Z,76.36
2023-05-06T07:28:02.113Z,74.03
2023-05-06T07:31:04.909Z,71.11
2023-05-06T07:34:08.832Z,69.24
2023-05-06T07:37:11.535Z,71.41
2023-05-06T07:40:14.130Z,71.06
2023-05-06T07:43:17.085Z,71.42
2023-05-06T07:46:19.659Z,73.31
2023-05-06T07:49:25.361Z,73.82
2023-05-06T07:52:28.085Z,75.94
2023-05-06T07:55:32.033Z,72.18
2023-05-06T07:58:35.926Z,71.98
2023-05-06T08:01:38.679Z,73.56
2023-05-06T08:04:43.202Z,72.70
2023-05-06T08:07:46.141Z,73.37
2023-05-06T08:10:49.367Z,72.70
2023-05-06T08:13:51.847Z,71.19
2023-05-06T08:16:54.633Z,70.86
2023-05-06T08:19:58.495Z,68.40
2023-05-06T08:23:01.262Z,68.38
2023-05-06T08:26:03.817Z,67.74
2023-05-06T08:29:08.069Z,66.43
2023-05-06T08:32:10.710Z,65.34
2023-05-06T08:35:15.031Z,64.56
2023-05-06T08:38:17.455Z,63.02
2023-05-06T08:41:21.594Z,62.62
2023-05-06T08:44:24.521Z,60.25
2023-05-06T08:47:27.531Z,61.43
2023-05-06T08:50:31.428Z,59.73
2023-05-06T08:53:34.274Z,59.06
2023-05-06T08:56:36.694Z,57.50
2023-05-06T08:59:39.454Z,58.69
2023-05-06T09:02:43.429Z,56.16
2023-05-06T09:05:47.673Z,59.73
2023-05-06T09:08:50.372Z,59.16
2023-05-06T09:11:55.329Z,57.79
2023-05-06T09:14:57.796Z,57.15
2023-05-06T09:18:00.795Z,59.23
2023-05-06T09:21:04.793Z,61.08
2023-05-06T09:24:08.780Z,60.50
2023-05-06T09:27:12.322Z,61.86
2023-05-06T09:30:16.270Z,60.89
2023-05-06T09:33:18.728Z,58.38
2023-05-06T09:36:23.687Z,55.07
2023-05-06T09:39:26.959Z,54.48
2023-05-06T09:42:29.640Z,55.24
2023-05-06T09:45:32.901Z,53.76
2023-05-06T09:48:36.022Z,49.50
2023-05-06T09:51:41.635Z,50.27
2023-05-06T09:54:44.551Z,48.25
2023-05-06T09:57:47.663Z,46.52
2023-05-06T10:00:51.416Z,49.85
2023-05-06T10:03:54.323Z,47.39
2023-05-06T10:06:58.154Z,53.09
2023-05-06T10:10:00.920Z,46.85
2023-05-06T10:13:04.481Z,48.88
2023-05-06T10:16:07.891Z,51.06
2023-05-06T10:19:10.412Z,50.77
2023-05-06T10:22:22.161Z,50.13
2023-05-06T10:25:30.457Z,50.67
2023-05-06T10:28:35.786Z,52.25
2023-05-06T10:31:40.525Z,51.58
2023-05-06T10:34:47.788Z,52.13
2023-05-06T10:37:51.508Z,55.06
